sensor_id;sensor_type;location;lat;lon;timestamp;P1;durP1;ratioP1;P2;durP2;ratioP2
39426;SDS011;25938;48.470;1.486;2023-02-04T00:01:05;2.47;;;1.73;;
39426;SDS011;25938;48.470;1.486;2023-02-04T00:03:31;3.75;;;2.03;;
39426;SDS011;25938;48.470;1.486;2023-02-04T00:05:57;1.88;;;1.67;;
39426;SDS011;25938;48.470;1.486;2023-02-04T00:08:23;1.77;;;1.67;;
39426;SDS011;25938;48.470;1.486;2023-02-04T00:10:49;1.70;;;1.55;;
39426;SDS011;25938;48.470;1.486;2023-02-04T00:13:15;2.92;;;1.75;;
39426;SDS011;25938;48.470;1.486;2023-02-04T00:15:41;2.15;;;1.67;;
39426;SDS011;25938;48.470;1.486;2023-02-04T00:18:07;2.50;;;1.67;;
39426;SDS011;25938;48.470;1.486;2023-02-04T00:20:33;3.20;;;1.95;;
39426;SDS011;25938;48.470;1.486;2023-02-04T00:22:59;3.72;;;1.70;;
39426;SDS011;25938;48.470;1.486;2023-02-04T00:25:26;1.75;;;1.40;;
39426;SDS011;25938;48.470;1.486;2023-02-04T00:27:52;2.50;;;1.83;;
39426;SDS011;25938;48.470;1.486;2023-02-04T00:30:18;1.55;;;1.13;;
39426;SDS011;25938;48.470;1.486;2023-02-04T00:32:44;3.80;;;1.65;;
39426;SDS011;25938;48.470;1.486;2023-02-04T00:35:10;2.08;;;1.35;;
39426;SDS011;25938;48.470;1.486;2023-02-04T00:37:36;1.73;;;1.42;;
39426;SDS011;25938;48.470;1.486;2023-02-04T00:40:02;1.95;;;1.30;;
39426;SDS011;25938;48.470;1.486;2023-02-04T00:42:28;2.90;;;1.83;;
39426;SDS011;25938;48.470;1.486;2023-02-04T00:44:54;2.08;;;1.40;;
39426;SDS011;25938;48.470;1.486;2023-02-04T00:47:20;3.20;;;1.52;;
39426;SDS011;25938;48.470;1.486;2023-02-04T00:49:47;3.90;;;1.80;;
39426;SDS011;25938;48.470;1.486;2023-02-04T00:52:13;2.47;;;1.67;;
39426;SDS011;25938;48.470;1.486;2023-02-04T00:54:39;1.75;;;1.02;;
39426;SDS011;25938;48.470;1.486;2023-02-04T00:57:05;2.35;;;1.42;;
39426;SDS011;25938;48.470;1.486;2023-02-04T00:59:31;1.40;;;1.30;;
39426;SDS011;25938;48.470;1.486;2023-02-04T01:01:57;1.88;;;1.33;;
39426;SDS011;25938;48.470;1.486;2023-02-04T01:04:24;1.83;;;0.95;;
39426;SDS011;25938;48.470;1.486;2023-02-04T01:06:52;2.78;;;1.00;;
39426;SDS011;25938;48.470;1.486;2023-02-04T01:09:18;1.02;;;0.80;;
39426;SDS011;25938;48.470;1.486;2023-02-04T01:11:44;0.88;;;0.80;;
39426;SDS011;25938;48.470;1.486;2023-02-04T01:14:10;1.98;;;1.30;;
39426;SDS011;25938;48.470;1.486;2023-02-04T01:16:36;2.85;;;0.90;;
39426;SDS011;25938;48.470;1.486;2023-02-04T01:19:02;2.08;;;1.25;;
39426;SDS011;25938;48.470;1.486;2023-02-04T01:21:29;1.38;;;0.70;;
39426;SDS011;25938;48.470;1.486;2023-02-04T01:23:55;1.13;;;0.77;;
39426;SDS011;25938;48.470;1.486;2023-02-04T01:26:21;1.52;;;0.77;;
39426;SDS011;25938;48.470;1.486;2023-02-04T01:28:48;2.33;;;0.85;;
39426;SDS011;25938;48.470;1.486;2023-02-04T01:31:14;0.90;;;0.65;;
39426;SDS011;25938;48.470;1.486;2023-02-04T01:33:40;1.13;;;0.90;;
39426;SDS011;25938;48.470;1.486;2023-02-04T01:36:06;1.45;;;0.80;;
39426;SDS011;25938;48.470;1.486;2023-02-04T01:38:32;1.73;;;0.80;;
39426;SDS011;25938;48.470;1.486;2023-02-04T01:40:58;2.25;;;0.80;;
39426;SDS011;25938;48.470;1.486;2023-02-04T01:43:25;1.88;;;0.70;;
39426;SDS011;25938;48.470;1.486;2023-02-04T01:45:51;1.38;;;0.52;;
39426;SDS011;25938;48.470;1.486;2023-02-04T01:48:20;2.45;;;1.20;;
39426;SDS011;25938;48.470;1.486;2023-02-04T01:50:51;0.95;;;0.60;;
39426;SDS011;25938;48.470;1.486;2023-02-04T01:53:22;0.98;;;0.70;;
39426;SDS011;25938;48.470;1.486;2023-02-04T01:55:49;0.60;;;0.60;;
39426;SDS011;25938;48.470;1.486;2023-02-04T01:58:15;2.25;;;1.00;;
39426;SDS011;25938;48.470;1.486;2023-02-04T02:00:41;0.80;;;0.60;;
39426;SDS011;25938;48.470;1.486;2023-02-04T02:03:08;1.20;;;0.70;;
39426;SDS011;25938;48.470;1.486;2023-02-04T02:05:42;1.42;;;0.40;;
39426;SDS011;25938;48.470;1.486;2023-02-04T02:08:08;1.00;;;0.55;;
39426;SDS011;25938;48.470;1.486;2023-02-04T02:10:35;0.85;;;0.60;;
39426;SDS011;25938;48.470;1.486;2023-02-04T02:13:02;1.98;;;0.95;;
39426;SDS011;25938;48.470;1.486;2023-02-04T02:15:28;1.67;;;0.68;;
39426;SDS011;25938;48.470;1.486;2023-02-04T02:17:54;1.48;;;0.50;;
39426;SDS011;25938;48.470;1.486;2023-02-04T02:20:21;0.98;;;0.63;;
39426;SDS011;25938;48.470;1.486;2023-02-04T02:25:20;1.30;;;0.40;;
39426;SDS011;25938;48.470;1.486;2023-02-04T02:27:46;1.38;;;0.77;;
39426;SDS011;25938;48.470;1.486;2023-02-04T02:30:12;1.27;;;1.13;;
39426;SDS011;25938;48.470;1.486;2023-02-04T02:32:41;1.25;;;0.63;;
39426;SDS011;25938;48.470;1.486;2023-02-04T02:35:07;0.68;;;0.55;;
39426;SDS011;25938;48.470;1.486;2023-02-04T02:37:33;2.97;;;0.57;;
39426;SDS011;25938;48.470;1.486;2023-02-04T02:39:59;2.58;;;0.43;;
39426;SDS011;25938;48.470;1.486;2023-02-04T02:42:26;2.80;;;1.15;;
39426;SDS011;25938;48.470;1.486;2023-02-04T02:44:52;1.95;;;0.70;;
39426;SDS011;25938;48.470;1.486;2023-02-04T02:47:19;1.33;;;0.60;;
39426;SDS011;25938;48.470;1.486;2023-02-04T02:49:46;1.35;;;0.75;;
39426;SDS011;25938;48.470;1.486;2023-02-04T02:52:13;1.05;;;0.90;;
39426;SDS011;25938;48.470;1.486;2023-02-04T02:54:39;2.38;;;0.65;;
39426;SDS011;25938;48.470;1.486;2023-02-04T02:57:13;0.85;;;0.80;;
39426;SDS011;25938;48.470;1.486;2023-02-04T02:59:39;1.65;;;0.68;;
39426;SDS011;25938;48.470;1.486;2023-02-04T03:02:06;1.35;;;0.85;;
39426;SDS011;25938;48.470;1.486;2023-02-04T03:04:33;1.13;;;0.47;;
39426;SDS011;25938;48.470;1.486;2023-02-04T03:07:01;1.77;;;0.70;;
39426;SDS011;25938;48.470;1.486;2023-02-04T03:09:28;1.58;;;0.65;;
39426;SDS011;25938;48.470;1.486;2023-02-04T03:11:54;1.75;;;1.35;;
39426;SDS011;25938;48.470;1.486;2023-02-04T03:14:20;3.70;;;1.15;;
39426;SDS011;25938;48.470;1.486;2023-02-04T03:16:49;2.28;;;0.77;;
39426;SDS011;25938;48.470;1.486;2023-02-04T03:19:15;7.75;;;1.08;;
39426;SDS011;25938;48.470;1.486;2023-02-04T03:21:41;1.17;;;0.70;;
39426;SDS011;25938;48.470;1.486;2023-02-04T03:24:08;1.17;;;0.50;;
39426;SDS011;25938;48.470;1.486;2023-02-04T03:26:34;1.30;;;1.20;;
39426;SDS011;25938;48.470;1.486;2023-02-04T03:29:00;3.78;;;0.90;;
39426;SDS011;25938;48.470;1.486;2023-02-04T03:31:26;2.15;;;0.77;;
39426;SDS011;25938;48.470;1.486;2023-02-04T03:33:52;2.25;;;0.70;;
39426;SDS011;25938;48.470;1.486;2023-02-04T03:36:18;1.55;;;0.80;;
39426;SDS011;25938;48.470;1.486;2023-02-04T03:38:44;1.85;;;0.60;;
39426;SDS011;25938;48.470;1.486;2023-02-04T03:41:10;2.58;;;0.88;;
39426;SDS011;25938;48.470;1.486;2023-02-04T03:43:36;0.70;;;0.65;;
39426;SDS011;25938;48.470;1.486;2023-02-04T03:46:02;2.55;;;1.02;;
39426;SDS011;25938;48.470;1.486;2023-02-04T03:48:28;1.27;;;1.00;;
39426;SDS011;25938;48.470;1.486;2023-02-04T03:50:54;1.38;;;0.70;;
39426;SDS011;25938;48.470;1.486;2023-02-04T03:53:21;2.10;;;0.90;;
39426;SDS011;25938;48.470;1.486;2023-02-04T03:55:47;2.42;;;1.13;;
39426;SDS011;25938;48.470;1.486;2023-02-04T03:58:13;1.45;;;0.88;;
39426;SDS011;25938;48.470;1.486;2023-02-04T04:00:39;2.25;;;1.02;;
39426;SDS011;25938;48.470;1.486;2023-02-04T04:03:05;1.55;;;0.73;;
39426;SDS011;25938;48.470;1.486;2023-02-04T04:05:31;1.20;;;0.85;;
39426;SDS011;25938;48.470;1.486;2023-02-04T04:07:57;1.05;;;0.60;;
39426;SDS011;25938;48.470;1.486;2023-02-04T04:10:23;1.10;;;0.80;;
39426;SDS011;25938;48.470;1.486;2023-02-04T04:12:49;1.98;;;0.85;;
39426;SDS011;25938;48.470;1.486;2023-02-04T04:15:16;1.73;;;0.60;;
39426;SDS011;25938;48.470;1.486;2023-02-04T04:17:42;2.45;;;0.75;;
39426;SDS011;25938;48.470;1.486;2023-02-04T04:20:08;1.45;;;0.60;;
39426;SDS011;25938;48.470;1.486;2023-02-04T04:22:34;0.70;;;0.28;;
39426;SDS011;25938;48.470;1.486;2023-02-04T04:25:00;1.33;;;0.68;;
39426;SDS011;25938;48.470;1.486;2023-02-04T04:27:26;2.25;;;1.10;;
39426;SDS011;25938;48.470;1.486;2023-02-04T04:29:54;2.35;;;0.65;;
39426;SDS011;25938;48.470;1.486;2023-02-04T04:32:20;1.95;;;0.95;;
39426;SDS011;25938;48.470;1.486;2023-02-04T04:34:46;1.65;;;0.65;;
39426;SDS011;25938;48.470;1.486;2023-02-04T04:37:12;0.60;;;0.60;;
39426;SDS011;25938;48.470;1.486;2023-02-04T04:39:38;1.92;;;0.65;;
39426;SDS011;25938;48.470;1.486;2023-02-04T04:42:04;1.27;;;0.57;;
39426;SDS011;25938;48.470;1.486;2023-02-04T04:44:30;1.98;;;0.98;;
39426;SDS011;25938;48.470;1.486;2023-02-04T04:46:56;2.00;;;0.85;;
39426;SDS011;25938;48.470;1.486;2023-02-04T04:49:22;3.33;;;0.80;;
39426;SDS011;25938;48.470;1.486;2023-02-04T04:51:48;2.00;;;0.80;;
39426;SDS011;25938;48.470;1.486;2023-02-04T04:54:14;1.13;;;0.60;;
39426;SDS011;25938;48.470;1.486;2023-02-04T04:56:41;3.55;;;0.68;;
39426;SDS011;25938;48.470;1.486;2023-02-04T04:59:07;2.45;;;1.60;;
39426;SDS011;25938;48.470;1.486;2023-02-04T05:01:33;2.70;;;0.82;;
39426;SDS011;25938;48.470;1.486;2023-02-04T05:03:59;2.10;;;0.95;;
39426;SDS011;25938;48.470;1.486;2023-02-04T05:06:25;1.13;;;0.88;;
39426;SDS011;25938;48.470;1.486;2023-02-04T05:08:51;2.13;;;0.75;;
39426;SDS011;25938;48.470;1.486;2023-02-04T05:11:17;1.88;;;0.77;;
39426;SDS011;25938;48.470;1.486;2023-02-04T05:13:44;2.97;;;0.70;;
39426;SDS011;25938;48.470;1.486;2023-02-04T05:16:10;3.35;;;1.00;;
39426;SDS011;25938;48.470;1.486;2023-02-04T05:18:36;2.28;;;1.00;;
39426;SDS011;25938;48.470;1.486;2023-02-04T05:21:02;3.33;;;0.95;;
39426;SDS011;25938;48.470;1.486;2023-02-04T05:23:29;2.47;;;0.70;;
39426;SDS011;25938;48.470;1.486;2023-02-04T05:25:55;2.75;;;1.00;;
39426;SDS011;25938;48.470;1.486;2023-02-04T05:28:21;3.42;;;0.90;;
39426;SDS011;25938;48.470;1.486;2023-02-04T05:30:47;2.50;;;1.45;;
39426;SDS011;25938;48.470;1.486;2023-02-04T05:33:13;2.85;;;1.10;;
39426;SDS011;25938;48.470;1.486;2023-02-04T05:35:39;2.75;;;0.70;;
39426;SDS011;25938;48.470;1.486;2023-02-04T05:38:05;2.08;;;0.95;;
39426;SDS011;25938;48.470;1.486;2023-02-04T05:40:32;0.95;;;0.90;;
39426;SDS011;25938;48.470;1.486;2023-02-04T05:42:58;2.08;;;1.15;;
39426;SDS011;25938;48.470;1.486;2023-02-04T05:45:24;1.95;;;1.10;;
39426;SDS011;25938;48.470;1.486;2023-02-04T05:47:50;1.45;;;1.23;;
39426;SDS011;25938;48.470;1.486;2023-02-04T05:50:16;1.70;;;1.00;;
39426;SDS011;25938;48.470;1.486;2023-02-04T05:52:42;2.05;;;1.05;;
39426;SDS011;25938;48.470;1.486;2023-02-04T05:55:09;2.05;;;0.93;;
39426;SDS011;25938;48.470;1.486;2023-02-04T05:57:35;1.15;;;0.90;;
39426;SDS011;25938;48.470;1.486;2023-02-04T06:00:02;2.83;;;1.40;;
39426;SDS011;25938;48.470;1.486;2023-02-04T06:02:28;1.50;;;0.90;;
39426;SDS011;25938;48.470;1.486;2023-02-04T06:04:54;1.85;;;0.90;;
39426;SDS011;25938;48.470;1.486;2023-02-04T06:07:20;2.58;;;1.02;;
39426;SDS011;25938;48.470;1.486;2023-02-04T06:09:46;3.05;;;1.00;;
39426;SDS011;25938;48.470;1.486;2023-02-04T06:12:12;1.67;;;0.85;;
39426;SDS011;25938;48.470;1.486;2023-02-04T06:14:38;1.85;;;0.70;;
39426;SDS011;25938;48.470;1.486;2023-02-04T06:17:04;1.65;;;0.90;;
39426;SDS011;25938;48.470;1.486;2023-02-04T06:19:30;1.75;;;0.98;;
39426;SDS011;25938;48.470;1.486;2023-02-04T06:21:56;1.20;;;1.00;;
39426;SDS011;25938;48.470;1.486;2023-02-04T06:24:22;2.85;;;1.50;;
39426;SDS011;25938;48.470;1.486;2023-02-04T06:26:48;2.33;;;0.70;;
39426;SDS011;25938;48.470;1.486;2023-02-04T06:29:14;2.38;;;1.02;;
39426;SDS011;25938;48.470;1.486;2023-02-04T06:31:40;1.65;;;1.23;;
39426;SDS011;25938;48.470;1.486;2023-02-04T06:34:08;1.90;;;0.93;;
39426;SDS011;25938;48.470;1.486;2023-02-04T06:36:34;1.42;;;0.98;;
39426;SDS011;25938;48.470;1.486;2023-02-04T06:39:00;2.10;;;0.82;;
39426;SDS011;25938;48.470;1.486;2023-02-04T06:41:26;3.67;;;1.27;;
39426;SDS011;25938;48.470;1.486;2023-02-04T06:43:52;2.22;;;1.23;;
39426;SDS011;25938;48.470;1.486;2023-02-04T06:46:18;2.58;;;1.10;;
39426;SDS011;25938;48.470;1.486;2023-02-04T06:48:44;2.35;;;1.13;;
39426;SDS011;25938;48.470;1.486;2023-02-04T06:51:10;2.83;;;0.80;;
39426;SDS011;25938;48.470;1.486;2023-02-04T06:53:36;1.77;;;1.10;;
39426;SDS011;25938;48.470;1.486;2023-02-04T06:56:04;4.53;;;1.25;;
39426;SDS011;25938;48.470;1.486;2023-02-04T06:58:30;2.25;;;1.42;;
39426;SDS011;25938;48.470;1.486;2023-02-04T07:00:56;2.15;;;1.45;;
39426;SDS011;25938;48.470;1.486;2023-02-04T07:03:22;4.03;;;1.13;;
39426;SDS011;25938;48.470;1.486;2023-02-04T07:05:48;4.00;;;1.13;;
39426;SDS011;25938;48.470;1.486;2023-02-04T07:08:15;2.30;;;1.08;;
39426;SDS011;25938;48.470;1.486;2023-02-04T07:10:41;1.80;;;1.10;;
39426;SDS011;25938;48.470;1.486;2023-02-04T07:13:07;3.20;;;1.40;;
39426;SDS011;25938;48.470;1.486;2023-02-04T07:15:33;2.30;;;0.90;;
39426;SDS011;25938;48.470;1.486;2023-02-04T07:17:59;2.55;;;0.88;;
39426;SDS011;25938;48.470;1.486;2023-02-04T07:20:25;1.38;;;0.90;;
39426;SDS011;25938;48.470;1.486;2023-02-04T07:22:51;3.20;;;1.10;;
39426;SDS011;25938;48.470;1.486;2023-02-04T07:25:17;2.85;;;1.00;;
39426;SDS011;25938;48.470;1.486;2023-02-04T07:27:43;1.13;;;0.80;;
39426;SDS011;25938;48.470;1.486;2023-02-04T07:30:10;1.80;;;1.40;;
39426;SDS011;25938;48.470;1.486;2023-02-04T07:32:36;2.92;;;0.77;;
39426;SDS011;25938;48.470;1.486;2023-02-04T07:35:02;2.83;;;0.90;;
39426;SDS011;25938;48.470;1.486;2023-02-04T07:37:28;2.08;;;0.73;;
39426;SDS011;25938;48.470;1.486;2023-02-04T07:39:55;2.47;;;1.00;;
39426;SDS011;25938;48.470;1.486;2023-02-04T07:42:21;2.63;;;0.63;;
39426;SDS011;25938;48.470;1.486;2023-02-04T07:44:47;1.15;;;0.55;;
39426;SDS011;25938;48.470;1.486;2023-02-04T07:47:13;0.60;;;0.60;;
39426;SDS011;25938;48.470;1.486;2023-02-04T07:49:39;2.70;;;0.75;;
39426;SDS011;25938;48.470;1.486;2023-02-04T07:52:05;2.10;;;0.65;;
39426;SDS011;25938;48.470;1.486;2023-02-04T07:54:31;1.48;;;0.55;;
39426;SDS011;25938;48.470;1.486;2023-02-04T07:56:57;4.07;;;1.55;;
39426;SDS011;25938;48.470;1.486;2023-02-04T07:59:23;1.77;;;1.10;;
39426;SDS011;25938;48.470;1.486;2023-02-04T08:01:49;1.65;;;1.08;;
39426;SDS011;25938;48.470;1.486;2023-02-04T08:04:15;1.95;;;0.70;;
39426;SDS011;25938;48.470;1.486;2023-02-04T08:06:41;3.40;;;0.80;;
39426;SDS011;25938;48.470;1.486;2023-02-04T08:09:07;3.47;;;1.17;;
39426;SDS011;25938;48.470;1.486;2023-02-04T08:11:33;3.15;;;0.85;;
39426;SDS011;25938;48.470;1.486;2023-02-04T08:13:59;2.67;;;0.85;;
39426;SDS011;25938;48.470;1.486;2023-02-04T08:16:25;1.52;;;0.75;;
39426;SDS011;25938;48.470;1.486;2023-02-04T08:18:52;3.78;;;1.15;;
39426;SDS011;25938;48.470;1.486;2023-02-04T08:21:18;3.35;;;1.00;;
39426;SDS011;25938;48.470;1.486;2023-02-04T08:23:44;1.92;;;1.42;;
39426;SDS011;25938;48.470;1.486;2023-02-04T08:26:10;3.53;;;1.05;;
39426;SDS011;25938;48.470;1.486;2023-02-04T08:28:36;1.10;;;0.80;;
39426;SDS011;25938;48.470;1.486;2023-02-04T08:31:03;0.65;;;0.63;;
39426;SDS011;25938;48.470;1.486;2023-02-04T08:33:30;1.30;;;0.80;;
39426;SDS011;25938;48.470;1.486;2023-02-04T08:35:56;2.20;;;0.95;;
39426;SDS011;25938;48.470;1.486;2023-02-04T08:38:22;4.22;;;2.10;;
39426;SDS011;25938;48.470;1.486;2023-02-04T08:40:48;1.90;;;0.85;;
39426;SDS011;25938;48.470;1.486;2023-02-04T08:43:14;4.65;;;1.40;;
39426;SDS011;25938;48.470;1.486;2023-02-04T08:45:40;3.63;;;1.25;;
39426;SDS011;25938;48.470;1.486;2023-02-04T08:48:06;2.78;;;1.67;;
39426;SDS011;25938;48.470;1.486;2023-02-04T08:50:33;4.32;;;2.00;;
39426;SDS011;25938;48.470;1.486;2023-02-04T08:52:59;2.00;;;1.30;;
39426;SDS011;25938;48.470;1.486;2023-02-04T08:55:25;6.90;;;1.80;;
39426;SDS011;25938;48.470;1.486;2023-02-04T08:57:51;3.05;;;1.67;;
39426;SDS011;25938;48.470;1.486;2023-02-04T09:00:17;1.67;;;1.35;;
39426;SDS011;25938;48.470;1.486;2023-02-04T09:02:44;3.33;;;1.50;;
39426;SDS011;25938;48.470;1.486;2023-02-04T09:05:10;2.72;;;1.77;;
39426;SDS011;25938;48.470;1.486;2023-02-04T09:07:36;3.53;;;1.60;;
39426;SDS011;25938;48.470;1.486;2023-02-04T09:10:02;2.90;;;1.80;;
39426;SDS011;25938;48.470;1.486;2023-02-04T09:12:28;4.63;;;2.03;;
39426;SDS011;25938;48.470;1.486;2023-02-04T09:14:54;3.13;;;1.60;;
39426;SDS011;25938;48.470;1.486;2023-02-04T09:17:20;2.80;;;1.73;;
39426;SDS011;25938;48.470;1.486;2023-02-04T09:19:46;2.80;;;1.30;;
39426;SDS011;25938;48.470;1.486;2023-02-04T09:22:12;2.80;;;1.63;;
39426;SDS011;25938;48.470;1.486;2023-02-04T09:24:39;2.90;;;1.30;;
39426;SDS011;25938;48.470;1.486;2023-02-04T09:27:05;4.25;;;1.70;;
39426;SDS011;25938;48.470;1.486;2023-02-04T09:29:31;3.45;;;2.03;;
39426;SDS011;25938;48.470;1.486;2023-02-04T09:31:57;3.05;;;2.08;;
39426;SDS011;25938;48.470;1.486;2023-02-04T09:34:23;3.60;;;2.10;;
39426;SDS011;25938;48.470;1.486;2023-02-04T09:36:49;3.03;;;1.63;;
39426;SDS011;25938;48.470;1.486;2023-02-04T09:39:15;3.80;;;1.75;;
39426;SDS011;25938;48.470;1.486;2023-02-04T09:41:41;2.63;;;1.75;;
39426;SDS011;25938;48.470;1.486;2023-02-04T09:44:26;3.15;;;1.58;;
39426;SDS011;25938;48.470;1.486;2023-02-04T09:46:54;2.92;;;2.38;;
39426;SDS011;25938;48.470;1.486;2023-02-04T09:49:21;2.83;;;1.95;;
39426;SDS011;25938;48.470;1.486;2023-02-04T09:51:47;4.15;;;2.15;;
39426;SDS011;25938;48.470;1.486;2023-02-04T09:54:15;3.20;;;1.80;;
39426;SDS011;25938;48.470;1.486;2023-02-04T09:56:41;2.47;;;1.95;;
39426;SDS011;25938;48.470;1.486;2023-02-04T10:01:37;2.58;;;1.80;;
39426;SDS011;25938;48.470;1.486;2023-02-04T10:04:03;6.78;;;2.40;;
39426;SDS011;25938;48.470;1.486;2023-02-04T10:06:29;5.32;;;2.75;;
39426;SDS011;25938;48.470;1.486;2023-02-04T10:08:55;2.67;;;1.65;;
39426;SDS011;25938;48.470;1.486;2023-02-04T10:11:22;2.60;;;1.77;;
39426;SDS011;25938;48.470;1.486;2023-02-04T10:13:50;4.63;;;1.90;;
39426;SDS011;25938;48.470;1.486;2023-02-04T10:16:24;2.75;;;2.10;;
39426;SDS011;25938;48.470;1.486;2023-02-04T10:18:54;5.65;;;2.53;;
39426;SDS011;25938;48.470;1.486;2023-02-04T10:21:28;4.72;;;2.35;;
39426;SDS011;25938;48.470;1.486;2023-02-04T10:23:56;4.20;;;2.40;;
39426;SDS011;25938;48.470;1.486;2023-02-04T10:26:24;2.88;;;2.28;;
39426;SDS011;25938;48.470;1.486;2023-02-04T10:29:03;4.80;;;2.53;;
39426;SDS011;25938;48.470;1.486;2023-02-04T10:36:28;7.10;;;2.80;;
39426;SDS011;25938;48.470;1.486;2023-02-04T10:38:58;3.92;;;2.92;;
39426;SDS011;25938;48.470;1.486;2023-02-04T10:41:25;3.25;;;2.50;;
39426;SDS011;25938;48.470;1.486;2023-02-04T10:44:01;4.35;;;2.33;;
39426;SDS011;25938;48.470;1.486;2023-02-04T10:46:29;5.32;;;2.42;;
39426;SDS011;25938;48.470;1.486;2023-02-04T10:48:55;4.90;;;2.53;;
39426;SDS011;25938;48.470;1.486;2023-02-04T10:51:21;4.93;;;3.08;;
39426;SDS011;25938;48.470;1.486;2023-02-04T10:53:48;3.47;;;2.53;;
39426;SDS011;25938;48.470;1.486;2023-02-04T10:56:33;4.00;;;2.47;;
39426;SDS011;25938;48.470;1.486;2023-02-04T10:58:59;4.10;;;2.60;;
39426;SDS011;25938;48.470;1.486;2023-02-04T11:01:25;3.80;;;2.55;;
39426;SDS011;25938;48.470;1.486;2023-02-04T11:03:53;3.03;;;2.38;;
39426;SDS011;25938;48.470;1.486;2023-02-04T11:06:20;5.75;;;2.13;;
39426;SDS011;25938;48.470;1.486;2023-02-04T11:08:46;4.57;;;2.50;;
39426;SDS011;25938;48.470;1.486;2023-02-04T11:11:15;6.60;;;2.42;;
39426;SDS011;25938;48.470;1.486;2023-02-04T11:21:13;3.47;;;2.38;;
39426;SDS011;25938;48.470;1.486;2023-02-04T11:23:39;2.05;;;1.83;;
39426;SDS011;25938;48.470;1.486;2023-02-04T11:26:06;3.80;;;2.47;;
39426;SDS011;25938;48.470;1.486;2023-02-04T11:31:12;2.92;;;2.08;;
39426;SDS011;25938;48.470;1.486;2023-02-04T11:33:39;4.07;;;2.22;;
39426;SDS011;25938;48.470;1.486;2023-02-04T11:36:08;5.05;;;2.47;;
39426;SDS011;25938;48.470;1.486;2023-02-04T11:38:36;2.67;;;2.47;;
39426;SDS011;25938;48.470;1.486;2023-02-04T11:41:02;4.45;;;2.40;;
39426;SDS011;25938;48.470;1.486;2023-02-04T11:43:32;4.95;;;2.22;;
39426;SDS011;25938;48.470;1.486;2023-02-04T11:46:09;4.25;;;2.22;;
39426;SDS011;25938;48.470;1.486;2023-02-04T11:48:37;4.18;;;1.88;;
39426;SDS011;25938;48.470;1.486;2023-02-04T11:51:09;3.85;;;2.20;;
39426;SDS011;25938;48.470;1.486;2023-02-04T11:53:36;2.08;;;1.95;;
39426;SDS011;25938;48.470;1.486;2023-02-04T11:56:02;2.58;;;2.38;;
39426;SDS011;25938;48.470;1.486;2023-02-04T11:58:29;4.22;;;2.25;;
39426;SDS011;25938;48.470;1.486;2023-02-04T12:00:55;2.90;;;1.98;;
39426;SDS011;25938;48.470;1.486;2023-02-04T12:03:31;3.70;;;1.45;;
39426;SDS011;25938;48.470;1.486;2023-02-04T12:05:58;2.75;;;1.92;;
39426;SDS011;25938;48.470;1.486;2023-02-04T12:08:31;3.72;;;1.65;;
39426;SDS011;25938;48.470;1.486;2023-02-04T12:13:27;2.40;;;1.55;;
39426;SDS011;25938;48.470;1.486;2023-02-04T12:15:56;1.75;;;1.65;;
39426;SDS011;25938;48.470;1.486;2023-02-04T12:18:23;3.15;;;2.03;;
39426;SDS011;25938;48.470;1.486;2023-02-04T12:20:51;3.90;;;2.53;;
39426;SDS011;25938;48.470;1.486;2023-02-04T12:23:17;4.40;;;1.75;;
39426;SDS011;25938;48.470;1.486;2023-02-04T12:25:43;4.88;;;2.05;;
39426;SDS011;25938;48.470;1.486;2023-02-04T12:28:09;2.50;;;2.10;;
39426;SDS011;25938;48.470;1.486;2023-02-04T12:30:36;3.97;;;2.42;;
39426;SDS011;25938;48.470;1.486;2023-02-04T12:33:02;3.50;;;2.50;;
39426;SDS011;25938;48.470;1.486;2023-02-04T12:35:28;3.75;;;1.80;;
39426;SDS011;25938;48.470;1.486;2023-02-04T12:37:54;3.40;;;2.58;;
39426;SDS011;25938;48.470;1.486;2023-02-04T12:40:20;2.42;;;2.22;;
39426;SDS011;25938;48.470;1.486;2023-02-04T12:42:46;3.42;;;2.25;;
39426;SDS011;25938;48.470;1.486;2023-02-04T12:45:13;3.90;;;2.53;;
39426;SDS011;25938;48.470;1.486;2023-02-04T12:47:39;3.97;;;2.63;;
39426;SDS011;25938;48.470;1.486;2023-02-04T12:50:06;5.45;;;2.80;;
39426;SDS011;25938;48.470;1.486;2023-02-04T12:52:33;3.75;;;2.55;;
39426;SDS011;25938;48.470;1.486;2023-02-04T12:55:01;3.15;;;2.38;;
39426;SDS011;25938;48.470;1.486;2023-02-04T12:57:29;2.88;;;2.60;;
39426;SDS011;25938;48.470;1.486;2023-02-04T12:59:55;3.05;;;2.00;;
39426;SDS011;25938;48.470;1.486;2023-02-04T13:02:23;3.67;;;2.35;;
39426;SDS011;25938;48.470;1.486;2023-02-04T13:04:49;3.72;;;2.25;;
39426;SDS011;25938;48.470;1.486;2023-02-04T13:07:15;2.85;;;1.95;;
39426;SDS011;25938;48.470;1.486;2023-02-04T13:09:41;2.45;;;2.25;;
39426;SDS011;25938;48.470;1.486;2023-02-04T13:12:09;7.05;;;2.80;;
39426;SDS011;25938;48.470;1.486;2023-02-04T13:14:37;3.47;;;2.85;;
39426;SDS011;25938;48.470;1.486;2023-02-04T13:17:03;3.10;;;2.58;;
39426;SDS011;25938;48.470;1.486;2023-02-04T13:19:29;4.20;;;2.78;;
39426;SDS011;25938;48.470;1.486;2023-02-04T13:21:56;2.58;;;2.00;;
39426;SDS011;25938;48.470;1.486;2023-02-04T13:24:22;3.50;;;2.13;;
39426;SDS011;25938;48.470;1.486;2023-02-04T13:26:48;2.20;;;1.92;;
39426;SDS011;25938;48.470;1.486;2023-02-04T13:29:14;2.35;;;2.10;;
39426;SDS011;25938;48.470;1.486;2023-02-04T13:31:40;3.03;;;2.10;;
39426;SDS011;25938;48.470;1.486;2023-02-04T13:34:06;5.00;;;2.22;;
39426;SDS011;25938;48.470;1.486;2023-02-04T13:36:33;2.72;;;1.60;;
39426;SDS011;25938;48.470;1.486;2023-02-04T13:38:59;2.38;;;1.75;;
39426;SDS011;25938;48.470;1.486;2023-02-04T13:41:25;3.45;;;1.60;;
39426;SDS011;25938;48.470;1.486;2023-02-04T13:43:51;2.92;;;1.67;;
39426;SDS011;25938;48.470;1.486;2023-02-04T13:46:18;1.88;;;1.77;;
39426;SDS011;25938;48.470;1.486;2023-02-04T13:48:44;3.70;;;1.55;;
39426;SDS011;25938;48.470;1.486;2023-02-04T13:51:10;2.00;;;1.75;;
39426;SDS011;25938;48.470;1.486;2023-02-04T13:53:36;3.33;;;1.88;;
39426;SDS011;25938;48.470;1.486;2023-02-04T13:56:02;2.85;;;1.38;;
39426;SDS011;25938;48.470;1.486;2023-02-04T13:58:28;4.03;;;1.35;;
39426;SDS011;25938;48.470;1.486;2023-02-04T14:00:54;2.83;;;1.75;;
39426;SDS011;25938;48.470;1.486;2023-02-04T14:03:27;2.08;;;1.70;;
39426;SDS011;25938;48.470;1.486;2023-02-04T14:05:54;2.15;;;1.27;;
39426;SDS011;25938;48.470;1.486;2023-02-04T14:08:20;1.27;;;1.17;;
39426;SDS011;25938;48.470;1.486;2023-02-04T14:10:47;2.83;;;1.30;;
39426;SDS011;25938;48.470;1.486;2023-02-04T14:13:13;1.75;;;1.55;;
39426;SDS011;25938;48.470;1.486;2023-02-04T14:15:39;1.80;;;1.20;;
39426;SDS011;25938;48.470;1.486;2023-02-04T14:18:06;1.70;;;1.40;;
39426;SDS011;25938;48.470;1.486;2023-02-04T14:23:36;3.28;;;1.40;;
39426;SDS011;25938;48.470;1.486;2023-02-04T14:26:02;2.15;;;1.23;;
39426;SDS011;25938;48.470;1.486;2023-02-04T14:28:28;1.95;;;1.48;;
39426;SDS011;25938;48.470;1.486;2023-02-04T14:30:54;1.52;;;1.42;;
39426;SDS011;25938;48.470;1.486;2023-02-04T14:33:20;1.95;;;1.48;;
39426;SDS011;25938;48.470;1.486;2023-02-04T14:35:46;2.80;;;2.60;;
39426;SDS011;25938;48.470;1.486;2023-02-04T14:38:13;3.33;;;1.67;;
39426;SDS011;25938;48.470;1.486;2023-02-04T14:40:40;2.30;;;2.08;;
39426;SDS011;25938;48.470;1.486;2023-02-04T14:43:06;2.53;;;1.58;;
39426;SDS011;25938;48.470;1.486;2023-02-04T14:45:35;1.33;;;1.23;;
39426;SDS011;25938;48.470;1.486;2023-02-04T14:48:01;2.25;;;1.17;;
39426;SDS011;25938;48.470;1.486;2023-02-04T14:50:27;2.47;;;2.28;;
39426;SDS011;25938;48.470;1.486;2023-02-04T14:52:54;3.75;;;1.55;;
39426;SDS011;25938;48.470;1.486;2023-02-04T14:55:21;1.98;;;1.38;;
39426;SDS011;25938;48.470;1.486;2023-02-04T14:57:47;1.65;;;1.55;;
39426;SDS011;25938;48.470;1.486;2023-02-04T15:00:13;2.80;;;1.33;;
39426;SDS011;25938;48.470;1.486;2023-02-04T15:02:39;2.72;;;1.40;;
39426;SDS011;25938;48.470;1.486;2023-02-04T15:05:06;1.35;;;1.25;;
39426;SDS011;25938;48.470;1.486;2023-02-04T15:07:32;3.45;;;1.50;;
39426;SDS011;25938;48.470;1.486;2023-02-04T15:09:58;2.08;;;1.95;;